Time;durP1;ratioP1;P1;durP2;ratioP2;P2;SDS_P1;SDS_P2;PMS_P1;PMS_P2;Temp;Humidity;BMP_temperature;BMP_pressure;BME280_temperature;BME280_humidity;BME280_pressure;Samples;Min_cycle;Max_cycle;Signal;HPM_P1;HPM_P2
2023/04/10 00:02:08;;;;;;;7.40;3.90;;;9.30;99.90;;;;;;4961365;28;20019;-70
2023/04/10 00:04:33;;;;;;;6.07;3.60;;;9.20;99.90;;;;;;4959917;29;20020;-70
2023/04/10 00:06:59;;;;;;;5.90;4.63;;;9.20;99.90;;;;;;4961156;28;20075;-70
2023/04/10 00:09:26;;;;;;;4.97;4.35;;;9.20;99.90;;;;;;4960972;28;20059;-70
2023/04/10 00:11:51;;;;;;;7.03;4.80;;;9.20;99.90;;;;;;4961173;28;20027;-70
2023/04/10 00:14:21;;;;;;;7.75;4.45;;;9.20;99.90;;;;;;4961123;28;20515;-70
2023/04/10 00:16:48;;;;;;;6.30;4.72;;;9.20;99.90;;;;;;4961263;28;20028;-70
2023/04/10 00:19:14;;;;;;;5.15;4.60;;;9.20;99.90;;;;;;4960237;28;20034;-69
2023/04/10 00:21:40;;;;;;;6.25;4.25;;;9.20;99.90;;;;;;4960764;28;20043;-70
2023/04/10 00:24:06;;;;;;;5.40;4.50;;;9.20;99.90;;;;;;4960881;29;20031;-69
2023/04/10 00:26:31;;;;;;;7.47;4.15;;;9.10;99.90;;;;;;4960789;29;20106;-69
2023/04/10 00:28:57;;;;;;;4.35;3.95;;;9.20;99.90;;;;;;4960766;29;20055;-69
2023/04/10 00:31:23;;;;;;;4.50;4.10;;;9.10;99.90;;;;;;4960739;28;20086;-70
2023/04/10 00:33:48;;;;;;;6.85;4.65;;;9.10;99.90;;;;;;4960726;29;20023;-69
2023/04/10 00:36:14;;;;;;;7.35;4.55;;;9.00;99.90;;;;;;4960720;28;20110;-69
2023/04/10 00:38:40;;;;;;;6.15;4.80;;;9.00;99.90;;;;;;4960505;29;20127;-70
2023/04/10 00:41:06;;;;;;;8.13;4.60;;;9.00;99.90;;;;;;4959302;28;20476;-69
2023/04/10 00:43:32;;;;;;;5.50;4.65;;;8.90;99.90;;;;;;4960673;28;20046;-69
2023/04/10 00:45:58;;;;;;;6.63;5.13;;;8.90;99.90;;;;;;4960486;28;20024;-69
2023/04/10 00:48:24;;;;;;;5.90;5.15;;;8.90;99.90;;;;;;4960347;28;20031;-69
2023/04/10 00:50:49;;;;;;;6.63;4.93;;;8.90;99.90;;;;;;4959091;28;20174;-70
2023/04/10 00:53:16;;;;;;;4.45;4.05;;;8.80;99.90;;;;;;4960372;28;20106;-69
2023/04/10 00:55:42;;;;;;;5.32;4.82;;;8.80;99.90;;;;;;4960293;28;20030;-69
2023/04/10 00:58:13;;;;;;;5.18;4.28;;;8.80;99.90;;;;;;4959077;28;20020;-69
2023/04/10 01:00:39;;;;;;;7.55;4.25;;;8.70;99.90;;;;;;4960278;28;20019;-70
2023/04/10 01:03:10;;;;;;;6.05;4.60;;;8.70;99.90;;;;;;4958826;29;20562;-69
2023/04/10 01:05:43;;;;;;;4.82;4.32;;;8.70;99.90;;;;;;4960004;29;20398;-69
2023/04/10 01:08:24;;;;;;;4.90;4.43;;;8.70;99.90;;;;;;4960024;28;20066;-69
2023/04/10 01:10:55;;;;;;;6.95;4.70;;;8.70;99.90;;;;;;4958783;29;20518;-70
2023/04/10 01:13:23;;;;;;;5.15;4.65;;;8.70;99.90;;;;;;4958708;28;20023;-70
2023/04/10 01:15:59;;;;;;;4.80;3.92;;;8.70;99.90;;;;;;4959899;28;20063;-69
2023/04/10 01:18:38;;;;;;;5.93;4.22;;;8.70;99.90;;;;;;4959826;28;20074;-70
2023/04/10 01:21:08;;;;;;;4.70;4.30;;;8.60;99.90;;;;;;4958587;28;20047;-70
2023/04/10 01:24:03;;;;;;;4.40;4.00;;;8.60;99.90;;;;;;4954302;28;20098;-70
2023/04/10 01:26:37;;;;;;;5.40;4.28;;;8.60;99.90;;;;;;4959730;28;20031;-70
2023/04/10 01:29:18;;;;;;;4.57;4.18;;;8.60;99.90;;;;;;4958494;29;20115;-70
2023/04/10 01:31:56;;;;;;;5.03;4.53;;;8.50;99.90;;;;;;4955084;28;20098;-70
2023/04/10 01:34:26;;;;;;;5.60;4.30;;;8.50;99.90;;;;;;4959596;28;20492;-69
2023/04/10 01:37:11;;;;;;;4.93;4.43;;;8.50;99.90;;;;;;4959512;28;20043;-70
2023/04/10 01:39:40;;;;;;;5.35;4.50;;;8.50;99.90;;;;;;4959324;28;20376;-69
2023/04/10 01:42:07;;;;;;;5.70;5.00;;;8.40;99.90;;;;;;4959698;28;20114;-69
2023/04/10 01:44:36;;;;;;;5.53;4.93;;;8.40;99.90;;;;;;4959310;28;20023;-69
2023/04/10 01:47:06;;;;;;;9.55;5.03;;;8.40;99.90;;;;;;4959556;28;20027;-70
2023/04/10 01:49:33;;;;;;;5.50;4.72;;;8.40;99.90;;;;;;4952866;28;20106;-70
2023/04/10 01:51:59;;;;;;;10.15;5.10;;;8.40;99.90;;;;;;4959442;28;20035;-69
2023/04/10 01:54:26;;;;;;;9.02;5.55;;;8.30;99.90;;;;;;4959127;28;20031;-69
2023/04/10 01:56:52;;;;;;;8.20;4.88;;;8.30;99.90;;;;;;4959180;28;20373;-70
2023/04/10 01:59:19;;;;;;;7.00;4.97;;;8.20;99.90;;;;;;4959208;29;20074;-69
2023/04/10 02:01:45;;;;;;;7.10;4.85;;;8.20;99.90;;;;;;4957936;28;20039;-70
2023/04/10 02:04:10;;;;;;;4.95;4.40;;;8.10;99.90;;;;;;4959232;28;20027;-69
2023/04/10 02:06:56;;;;;;;6.15;4.70;;;8.00;99.90;;;;;;4958304;29;20050;-70
2023/04/10 02:09:29;;;;;;;9.00;4.50;;;8.00;99.90;;;;;;4958742;28;20024;-70
2023/04/10 02:12:03;;;;;;;5.10;4.45;;;7.90;99.90;;;;;;4957839;29;20058;-70
2023/04/10 02:14:31;;;;;;;7.32;4.45;;;7.80;99.90;;;;;;4957784;29;20023;-69
2023/04/10 02:16:57;;;;;;;4.35;3.95;;;7.70;99.90;;;;;;4957756;29;20457;-70
2023/04/10 02:19:25;;;;;;;5.60;4.28;;;7.70;99.90;;;;;;4958681;28;20018;-69
2023/04/10 02:21:52;;;;;;;5.68;3.88;;;7.70;99.90;;;;;;4958915;28;20070;-70
2023/04/10 02:24:19;;;;;;;5.93;3.80;;;7.70;99.90;;;;;;4958353;28;20507;-69
2023/04/10 02:26:46;;;;;;;5.90;4.97;;;7.70;99.90;;;;;;4959003;29;20496;-69
2023/04/10 02:29:12;;;;;;;4.65;4.25;;;7.70;99.90;;;;;;4957400;28;20028;-70
2023/04/10 02:31:38;;;;;;;6.53;4.93;;;7.70;99.90;;;;;;4959068;29;20095;-69
2023/04/10 02:34:04;;;;;;;5.25;4.30;;;7.60;99.90;;;;;;4957397;28;20031;-70
2023/04/10 02:36:30;;;;;;;8.27;5.43;;;7.70;99.90;;;;;;4957467;29;20396;-69
2023/04/10 02:38:55;;;;;;;6.93;3.95;;;7.70;99.90;;;;;;4958374;28;20030;-70
2023/04/10 02:41:21;;;;;;;4.68;4.03;;;7.70;99.90;;;;;;4958594;28;20034;-69
2023/04/10 02:43:47;;;;;;;5.03;4.07;;;7.70;99.90;;;;;;4963675;28;20047;-69
2023/04/10 02:46:12;;;;;;;5.03;4.47;;;7.70;99.90;;;;;;4965067;28;20034;-69
2023/04/10 02:48:38;;;;;;;5.32;4.47;;;7.70;99.90;;;;;;4965127;28;20027;-70
2023/04/10 02:51:04;;;;;;;4.55;4.15;;;7.70;99.90;;;;;;4965042;28;20042;-69
2023/04/10 02:53:31;;;;;;;5.60;5.00;;;7.70;99.90;;;;;;4964067;28;20030;-69
2023/04/10 02:55:56;;;;;;;5.10;4.57;;;7.60;99.90;;;;;;4965093;28;20039;-69
2023/04/10 02:58:22;;;;;;;7.03;4.35;;;7.70;99.90;;;;;;4963642;28;20015;-70
2023/04/10 03:00:49;;;;;;;6.05;4.07;;;7.80;99.90;;;;;;4964638;28;20034;-69
2023/04/10 03:03:15;;;;;;;5.88;4.20;;;7.90;99.90;;;;;;4963443;28;20026;-69
2023/04/10 03:05:41;;;;;;;5.82;4.68;;;8.00;99.90;;;;;;4964209;28;20440;-70
2023/04/10 03:08:07;;;;;;;5.63;4.63;;;8.10;99.90;;;;;;4964499;28;20031;-69
2023/04/10 03:10:32;;;;;;;7.43;4.57;;;8.10;99.90;;;;;;4964668;28;20027;-69
2023/04/10 03:12:58;;;;;;;6.35;4.53;;;8.20;99.90;;;;;;4964960;29;20027;-70
2023/04/10 03:15:24;;;;;;;7.20;4.65;;;8.40;99.90;;;;;;4964650;28;20082;-69
2023/04/10 03:17:49;;;;;;;4.40;4.00;;;8.50;99.90;;;;;;4964968;28;20023;-70
2023/04/10 03:20:15;;;;;;;4.78;4.22;;;8.40;99.90;;;;;;4963210;28;20078;-70
2023/04/10 03:22:41;;;;;;;10.30;4.13;;;8.40;99.90;;;;;;4963724;28;20808;-69
2023/04/10 03:25:07;;;;;;;8.20;3.80;;;8.40;99.90;;;;;;4964511;28;20023;-70
2023/04/10 03:27:33;;;;;;;5.20;4.18;;;8.40;99.90;;;;;;4964271;28;20066;-69
2023/04/10 03:30:00;;;;;;;5.15;3.85;;;8.40;99.90;;;;;;4963516;29;20035;-70
2023/04/10 03:32:29;;;;;;;7.43;4.10;;;8.40;99.90;;;;;;4963276;28;20059;-69
2023/04/10 03:34:56;;;;;;;5.65;4.03;;;8.40;99.90;;;;;;4963449;28;20483;-69
2023/04/10 03:37:22;;;;;;;6.38;4.30;;;8.40;99.90;;;;;;4963622;28;20028;-69
2023/04/10 03:39:47;;;;;;;7.13;4.28;;;8.40;99.90;;;;;;4963207;28;20033;-70
2023/04/10 03:42:13;;;;;;;4.80;3.90;;;8.50;99.90;;;;;;4964735;28;20015;-69
2023/04/10 03:44:39;;;;;;;4.75;4.10;;;8.60;99.90;;;;;;4964699;28;20027;-69
2023/04/10 03:47:04;;;;;;;5.13;4.40;;;8.60;99.90;;;;;;4964776;28;20027;-70
2023/04/10 03:49:30;;;;;;;4.38;3.97;;;8.70;99.90;;;;;;4964531;28;20038;-70
2023/04/10 03:51:55;;;;;;;7.15;4.15;;;8.80;99.90;;;;;;4964353;28;20023;-70
2023/04/10 03:54:21;;;;;;;6.60;4.00;;;8.90;99.90;;;;;;4962127;28;20051;-69
2023/04/10 03:56:47;;;;;;;5.15;4.50;;;8.90;99.90;;;;;;4961292;28;20031;-69
2023/04/10 03:59:12;;;;;;;4.93;3.80;;;8.90;99.90;;;;;;4961520;29;20098;-70
2023/04/10 04:01:38;;;;;;;5.40;4.68;;;8.80;99.90;;;;;;4960067;28;20055;-70
2023/04/10 04:04:04;;;;;;;9.10;4.35;;;8.70;99.90;;;;;;4961311;28;20082;-70
2023/04/10 04:06:30;;;;;;;9.13;4.32;;;8.60;99.90;;;;;;4961306;28;20039;-69
2023/04/10 04:08:56;;;;;;;4.63;4.20;;;8.50;99.90;;;;;;4961176;28;20035;-69
2023/04/10 04:11:22;;;;;;;6.20;4.15;;;8.40;99.90;;;;;;4961158;28;20027;-69
2023/04/10 04:13:48;;;;;;;8.85;4.13;;;8.40;99.90;;;;;;4961347;29;20510;-69
2023/04/10 04:16:13;;;;;;;6.78;4.03;;;8.30;99.90;;;;;;4960966;28;20502;-70
2023/04/10 04:18:39;;;;;;;4.93;4.13;;;8.40;99.90;;;;;;4959798;29;20043;-69
2023/04/10 04:21:07;;;;;;;5.00;4.50;;;8.30;99.90;;;;;;4960875;28;20054;-69
2023/04/10 04:23:33;;;;;;;4.95;4.13;;;8.30;99.90;;;;;;4959543;29;20031;-69
2023/04/10 04:25:58;;;;;;;7.35;3.90;;;8.30;99.90;;;;;;4959939;28;20110;-70
2023/04/10 04:28:24;;;;;;;11.98;5.07;;;8.30;99.90;;;;;;4960951;29;20027;-70
2023/04/10 04:30:50;;;;;;;5.10;4.60;;;8.30;99.90;;;;;;4960783;28;20054;-69
2023/04/10 04:33:15;;;;;;;9.35;4.38;;;8.40;99.90;;;;;;4960723;28;20088;-69
2023/04/10 04:35:41;;;;;;;4.60;4.13;;;8.50;99.90;;;;;;4960829;28;20082;-70
2023/04/10 04:38:07;;;;;;;8.63;5.03;;;8.50;99.90;;;;;;4959321;28;20031;-70
2023/04/10 04:40:32;;;;;;;6.40;4.10;;;8.50;99.90;;;;;;4960774;28;20015;-69
2023/04/10 04:42:58;;;;;;;5.68;4.47;;;8.50;99.90;;;;;;4960670;28;20031;-70
2023/04/10 04:45:24;;;;;;;6.00;4.30;;;8.50;99.90;;;;;;4960367;28;20035;-69
2023/04/10 04:47:50;;;;;;;5.43;4.28;;;8.40;99.90;;;;;;4960647;28;20023;-70
2023/04/10 04:50:15;;;;;;;4.50;3.85;;;8.40;99.90;;;;;;4959102;29;20027;-70
2023/04/10 04:52:42;;;;;;;9.05;3.70;;;8.40;99.90;;;;;;4959163;28;20027;-70
2023/04/10 04:55:08;;;;;;;5.55;4.32;;;8.40;99.90;;;;;;4960239;28;20024;-70
2023/04/10 04:57:34;;;;;;;7.75;4.60;;;8.50;99.90;;;;;;4960249;29;20026;-69
2023/04/10 05:00:00;;;;;;;5.45;4.43;;;8.50;99.90;;;;;;4960473;28;20027;-69
2023/04/10 05:02:25;;;;;;;7.53;5.07;;;8.50;99.90;;;;;;4960408;28;20191;-69
2023/04/10 05:04:51;;;;;;;8.50;5.13;;;8.50;99.90;;;;;;4960156;28;20078;-69
2023/04/10 05:07:17;;;;;;;7.60;5.25;;;8.50;99.90;;;;;;4959905;28;20059;-69
2023/04/10 05:09:42;;;;;;;6.45;5.50;;;8.50;99.90;;;;;;4959931;28;20034;-69
2023/04/10 05:12:08;;;;;;;5.50;4.85;;;8.50;99.90;;;;;;4960340;29;20433;-70
2023/04/10 05:14:33;;;;;;;5.68;5.05;;;8.50;99.90;;;;;;4960136;28;20046;-69
2023/04/10 05:16:59;;;;;;;5.38;4.50;;;8.50;99.90;;;;;;4959679;29;20082;-69
2023/04/10 05:19:25;;;;;;;6.03;4.82;;;8.50;99.90;;;;;;4958266;28;20507;-70
2023/04/10 05:21:51;;;;;;;6.93;5.13;;;8.50;99.90;;;;;;4958472;28;20522;-70
2023/04/10 05:24:16;;;;;;;8.32;5.05;;;8.50;99.90;;;;;;4958321;28;20015;-69
2023/04/10 05:26:42;;;;;;;5.93;5.05;;;8.50;99.90;;;;;;4958631;29;20070;-69
2023/04/10 05:29:07;;;;;;;13.10;5.50;;;8.40;99.90;;;;;;4958422;28;20019;-70
2023/04/10 05:31:33;;;;;;;7.30;5.47;;;8.40;99.90;;;;;;4959895;28;20082;-69
2023/04/10 05:33:59;;;;;;;6.43;4.70;;;8.40;99.90;;;;;;4959678;28;20034;-70
2023/04/10 05:36:25;;;;;;;12.00;4.93;;;8.40;99.90;;;;;;4959789;29;20027;-69
2023/04/10 05:38:51;;;;;;;12.77;5.90;;;8.40;99.90;;;;;;4958312;29;20019;-69
2023/04/10 05:41:16;;;;;;;8.35;5.95;;;8.50;99.90;;;;;;4959715;29;20484;-69
2023/04/10 05:43:42;;;;;;;13.60;6.00;;;8.50;99.90;;;;;;4959612;28;20030;-69
2023/04/10 05:46:08;;;;;;;7.72;5.90;;;8.60;99.90;;;;;;4958331;29;20109;-69
2023/04/10 05:48:33;;;;;;;14.90;7.20;;;8.60;99.90;;;;;;4959420;29;20034;-69
2023/04/10 05:50:59;;;;;;;7.40;5.05;;;8.70;99.90;;;;;;4959383;29;20075;-69
2023/04/10 05:53:31;;;;;;;9.45;4.50;;;8.70;99.90;;;;;;4959150;28;20435;-69
2023/04/10 05:55:58;;;;;;;8.18;5.30;;;8.70;99.90;;;;;;4958019;29;20031;-69
2023/04/10 05:58:27;;;;;;;6.25;5.32;;;8.80;99.90;;;;;;4957800;28;20022;-69
2023/04/10 06:00:53;;;;;;;6.75;4.35;;;8.90;99.90;;;;;;4959423;29;20027;-69
2023/04/10 06:03:19;;;;;;;7.10;4.60;;;8.90;99.90;;;;;;4957673;28;20468;-70
2023/04/10 06:05:45;;;;;;;5.75;4.72;;;9.00;99.90;;;;;;4959152;29;20054;-70
2023/04/10 06:08:11;;;;;;;8.13;4.15;;;9.00;99.90;;;;;;4958967;28;20023;-70
2023/04/10 06:10:37;;;;;;;5.80;4.68;;;9.10;99.90;;;;;;4959308;28;20034;-70
2023/04/10 06:13:02;;;;;;;4.90;4.40;;;9.20;99.90;;;;;;4958756;28;20023;-70
2023/04/10 06:15:28;;;;;;;4.72;4.22;;;9.20;99.90;;;;;;4957419;29;20112;-70
2023/04/10 06:17:54;;;;;;;7.03;4.50;;;9.30;99.90;;;;;;4958260;28;20103;-69
2023/04/10 06:20:20;;;;;;;6.93;4.80;;;9.40;99.90;;;;;;4958676;28;20134;-69
2023/04/10 06:22:46;;;;;;;8.40;4.47;;;9.50;99.90;;;;;;4957704;28;20028;-69
2023/04/10 06:25:12;;;;;;;5.25;4.43;;;9.50;99.90;;;;;;4958854;29;20044;-70
2023/04/10 06:27:37;;;;;;;7.47;4.43;;;9.60;99.90;;;;;;4958748;29;20027;-69
2023/04/10 06:30:04;;;;;;;6.32;4.40;;;9.60;99.90;;;;;;4958816;28;20031;-70
2023/04/10 06:32:30;;;;;;;6.60;4.85;;;9.70;99.90;;;;;;4957723;28;20024;-69
2023/04/10 06:34:56;;;;;;;7.40;4.13;;;9.70;99.90;;;;;;4958640;28;20054;-70
2023/04/10 06:37:31;;;;;;;4.53;3.70;;;9.80;99.90;;;;;;4958667;28;20027;-69
2023/04/10 06:40:08;;;;;;;8.35;4.45;;;9.80;99.90;;;;;;4956860;29;20023;-70
2023/04/10 06:42:34;;;;;;;5.72;4.30;;;9.90;99.90;;;;;;4957415;28;20023;-69
2023/04/10 06:45:00;;;;;;;5.80;4.53;;;10.10;99.90;;;;;;4958331;28;20407;-69
2023/04/10 06:47:26;;;;;;;6.53;4.35;;;10.20;99.90;;;;;;4956779;29;20032;-69
2023/04/10 06:49:51;;;;;;;7.55;4.28;;;10.30;99.90;;;;;;4958432;28;20454;-70
2023/04/10 06:52:17;;;;;;;4.65;4.00;;;10.40;99.90;;;;;;4958739;28;20054;-69
2023/04/10 06:54:43;;;;;;;7.72;4.70;;;10.60;99.90;;;;;;4958187;28;20392;-70
2023/04/10 06:57:09;;;;;;;7.75;4.53;;;10.70;99.90;;;;;;4956322;28;20086;-69
2023/04/10 06:59:34;;;;;;;11.65;5.40;;;10.90;99.90;;;;;;4957985;28;20063;-70
2023/04/10 07:02:03;;;;;;;5.25;4.70;;;11.00;99.90;;;;;;4958477;28;20373;-69
2023/04/10 07:04:30;;;;;;;8.27;5.00;;;11.20;99.90;;;;;;4956795;28;20118;-70
2023/04/10 07:06:55;;;;;;;5.68;4.85;;;11.30;99.90;;;;;;4956353;28;20035;-69
2023/04/10 07:09:21;;;;;;;6.50;4.82;;;11.40;99.90;;;;;;4956432;28;20034;-69
2023/04/10 07:11:47;;;;;;;7.25;4.65;;;11.50;99.90;;;;;;4958635;28;20062;-69
2023/04/10 07:14:12;;;;;;;6.60;5.00;;;11.60;99.90;;;;;;4956806;28;20046;-69
2023/04/10 07:16:38;;;;;;;6.32;4.70;;;11.60;99.90;;;;;;4958524;28;20046;-70
2023/04/10 07:19:04;;;;;;;6.78;4.97;;;11.80;99.90;;;;;;4958007;28;20062;-70
2023/04/10 07:21:30;;;;;;;6.20;4.60;;;11.70;99.90;;;;;;4956863;28;20053;-69
2023/04/10 07:23:55;;;;;;;5.80;4.82;;;11.90;99.90;;;;;;4956990;28;20027;-69
2023/04/10 07:26:21;;;;;;;6.07;4.60;;;12.00;99.90;;;;;;4957694;28;20088;-69
2023/04/10 07:28:47;;;;;;;6.65;4.78;;;12.20;99.90;;;;;;4957337;28;20055;-69
2023/04/10 07:31:12;;;;;;;7.10;4.55;;;12.20;99.90;;;;;;4964790;28;20023;-69
2023/04/10 07:33:39;;;;;;;9.95;4.93;;;12.30;99.90;;;;;;4961554;28;20042;-70
2023/04/10 07:36:05;;;;;;;10.05;4.88;;;12.50;99.90;;;;;;4961737;28;20038;-70
2023/04/10 07:38:32;;;;;;;9.73;5.10;;;12.60;99.90;;;;;;4961452;28;20027;-70
2023/04/10 07:40:58;;;;;;;16.92;7.38;;;12.80;99.90;;;;;;4961617;28;20495;-69
2023/04/10 07:43:24;;;;;;;14.65;7.65;;;13.00;99.90;;;;;;4961334;28;20102;-70
2023/04/10 07:45:50;;;;;;;26.13;8.07;;;13.30;99.90;;;;;;4961856;28;20391;-70
2023/04/10 07:48:16;;;;;;;22.23;9.32;;;13.40;99.90;;;;;;4961346;28;20031;-70
2023/04/10 07:50:42;;;;;;;17.50;8.70;;;13.60;99.90;;;;;;4960242;28;20031;-70
2023/04/10 07:53:07;;;;;;;21.10;8.85;;;13.60;99.90;;;;;;4959380;28;20090;-70
2023/04/10 07:55:44;;;;;;;14.50;9.10;;;13.90;99.90;;;;;;4959905;28;20043;-70
2023/04/10 07:58:10;;;;;;;13.00;7.65;;;14.00;99.90;;;;;;4961125;28;20039;-70
2023/04/10 08:00:36;;;;;;;15.45;8.50;;;14.20;99.90;;;;;;4961051;28;20031;-70
2023/04/10 08:03:03;;;;;;;13.38;7.72;;;14.30;99.90;;;;;;4960013;28;20114;-70
2023/04/10 08:05:28;;;;;;;13.55;7.82;;;14.40;99.90;;;;;;4959467;28;20159;-70
2023/04/10 08:07:54;;;;;;;13.80;7.10;;;14.40;99.90;;;;;;4960134;28;20054;-70
2023/04/10 08:10:20;;;;;;;11.93;7.97;;;14.40;99.90;;;;;;4959673;28;20579;-70
2023/04/10 08:12:46;;;;;;;21.65;8.00;;;14.30;99.90;;;;;;4960658;28;20488;-69
2023/04/10 08:15:11;;;;;;;12.15;7.57;;;14.20;99.90;;;;;;4960344;28;20039;-70
2023/04/10 08:17:37;;;;;;;18.23;8.32;;;14.30;99.90;;;;;;4960664;28;20019;-69
2023/04/10 08:20:03;;;;;;;15.88;8.55;;;14.30;99.90;;;;;;4960872;28;20040;-70
2023/04/10 08:22:29;;;;;;;14.30;7.63;;;14.30;99.90;;;;;;4959258;29;20031;-69
2023/04/10 08:24:55;;;;;;;18.50;8.30;;;14.30;99.90;;;;;;4959272;28;20019;-69
2023/04/10 08:27:21;;;;;;;17.02;8.05;;;14.40;99.90;;;;;;4960688;29;20054;-69
2023/04/10 08:29:46;;;;;;;21.10;8.15;;;14.50;99.90;;;;;;4959487;28;20114;-70
2023/04/10 08:32:12;;;;;;;17.13;8.80;;;14.50;99.90;;;;;;4960429;29;20023;-70
2023/04/10 08:34:38;;;;;;;18.00;7.90;;;14.50;99.90;;;;;;4958895;28;20054;-69
2023/04/10 08:37:08;;;;;;;12.68;7.90;;;14.60;99.90;;;;;;4960669;28;20499;-69
2023/04/10 08:39:37;;;;;;;15.85;8.68;;;14.80;99.90;;;;;;4960353;28;20016;-69
2023/04/10 08:42:04;;;;;;;18.67;8.32;;;14.80;99.90;;;;;;4959468;28;20023;-69
2023/04/10 08:44:30;;;;;;;16.90;8.52;;;14.90;99.90;;;;;;4958470;28;20019;-70
2023/04/10 08:46:58;;;;;;;13.63;7.53;;;15.00;99.90;;;;;;4960019;28;20031;-70
2023/04/10 08:49:39;;;;;;;11.25;7.07;;;15.10;99.90;;;;;;4959046;28;20123;-70
2023/04/10 08:52:08;;;;;;;11.93;7.95;;;15.30;99.90;;;;;;4960407;28;20027;-71
2023/04/10 08:54:39;;;;;;;25.05;8.20;;;15.40;99.90;;;;;;4959397;28;20079;-70
2023/04/10 08:57:06;;;;;;;15.07;7.47;;;15.60;99.90;;;;;;4965494;28;20114;-71
2023/04/10 08:59:32;;;;;;;17.50;6.93;;;15.70;99.90;;;;;;4959144;28;20023;-70
2023/04/10 09:01:58;;;;;;;15.45;6.72;;;15.80;99.90;;;;;;4959192;28;20035;-71
2023/04/10 09:04:25;;;;;;;15.82;7.10;;;15.70;99.90;;;;;;4959538;28;20023;-70
2023/04/10 09:06:53;;;;;;;11.63;6.20;;;15.70;99.90;;;;;;4959278;28;20035;-70
2023/04/10 09:09:19;;;;;;;17.67;8.25;;;15.80;99.90;;;;;;4958688;28;20051;-71
2023/04/10 09:11:51;;;;;;;13.85;7.55;;;16.00;99.90;;;;;;4957854;28;20447;-70
2023/04/10 09:14:24;;;;;;;14.23;7.47;;;16.10;99.90;;;;;;4957831;28;20027;-70
2023/04/10 09:16:51;;;;;;;19.70;6.85;;;16.30;99.90;;;;;;4958294;28;20038;-70
2023/04/10 09:19:30;;;;;;;12.73;6.38;;;16.40;99.90;;;;;;4959622;28;20023;-70
2023/04/10 09:21:56;;;;;;;12.05;7.28;;;16.50;99.90;;;;;;4953627;29;20054;-70
2023/04/10 09:24:26;;;;;;;14.77;6.43;;;16.40;99.90;;;;;;4957712;28;20023;-70
2023/04/10 09:26:51;;;;;;;11.10;7.03;;;16.40;99.90;;;;;;4958551;29;20035;-69
2023/04/10 09:29:17;;;;;;;10.57;6.78;;;16.30;99.90;;;;;;4958885;28;20027;-70
2023/04/10 09:31:44;;;;;;;9.00;5.90;;;16.50;99.90;;;;;;4958451;28;20063;-71
2023/04/10 09:34:11;;;;;;;11.85;6.28;;;16.90;99.90;;;;;;4958844;28;20098;-70
2023/04/10 09:36:37;;;;;;;10.93;6.82;;;17.30;99.90;;;;;;4959530;28;20027;-70
2023/04/10 09:39:04;;;;;;;14.40;5.43;;;17.70;99.90;;;;;;4958078;28;20016;-70
2023/04/10 09:41:30;;;;;;;12.32;7.18;;;17.60;99.90;;;;;;4959388;28;20033;-70
2023/04/10 09:44:07;;;;;;;16.67;5.75;;;17.60;99.90;;;;;;4958130;28;20106;-70
2023/04/10 09:46:34;;;;;;;13.43;6.32;;;17.50;99.90;;;;;;4958403;28;20042;-70
2023/04/10 09:49:06;;;;;;;9.13;5.45;;;17.50;99.90;;;;;;4959610;29;20113;-70
2023/04/10 09:51:33;;;;;;;8.65;6.00;;;17.30;99.90;;;;;;4957781;28;20027;-71
2023/04/10 09:54:00;;;;;;;8.90;5.90;;;17.20;99.90;;;;;;4957424;28;20066;-70
2023/04/10 09:56:29;;;;;;;11.60;5.72;;;17.20;99.90;;;;;;4958896;29;20118;-70
2023/04/10 09:59:00;;;;;;;17.75;6.03;;;17.00;99.90;;;;;;4958019;29;20023;-70
2023/04/10 10:01:33;;;;;;;15.02;5.70;;;16.80;99.90;;;;;;4958216;28;20388;-70
2023/04/10 10:04:01;;;;;;;15.65;7.38;;;16.80;99.90;;;;;;4959302;28;20024;-70
2023/04/10 10:06:28;;;;;;;11.18;6.68;;;16.70;99.90;;;;;;4957570;28;20019;-70
2023/04/10 10:08:54;;;;;;;16.45;6.70;;;16.90;99.90;;;;;;4958200;28;20031;-70
2023/04/10 10:11:23;;;;;;;11.98;5.80;;;17.10;99.90;;;;;;4958213;28;20027;-70
2023/04/10 10:13:53;;;;;;;12.65;5.95;;;17.10;99.90;;;;;;4958720;28;20031;-70
2023/04/10 10:16:32;;;;;;;27.42;8.13;;;17.10;99.90;;;;;;4957765;28;20081;-70
2023/04/10 10:19:10;;;;;;;15.43;6.82;;;16.90;99.90;;;;;;4954254;29;20035;-70
2023/04/10 10:21:37;;;;;;;17.33;6.55;;;16.80;99.90;;;;;;4958488;28;20051;-70
2023/04/10 10:24:07;;;;;;;13.55;6.38;;;16.70;99.90;;;;;;4958664;28;20103;-70
2023/04/10 10:26:34;;;;;;;;;;;16.60;99.90;;;;;;4958680;28;20016;-70
2023/04/10 10:29:05;;;;;;;13.32;6.97;;;16.60;99.90;;;;;;4958776;28;20390;-69
2023/04/10 10:31:34;;;;;;;12.00;6.13;;;16.70;99.90;;;;;;4958781;28;20027;-69
2023/04/10 10:34:04;;;;;;;7.68;5.57;;;16.80;99.90;;;;;;4958708;28;20027;-70
2023/04/10 10:36:34;;;;;;;20.38;5.53;;;17.00;99.90;;;;;;4958750;29;20391;-70
2023/04/10 10:39:33;;;;;;;10.00;5.90;;;17.10;99.90;;;;;;4957844;28;20138;-70
2023/04/10 10:42:11;;;;;;;18.33;5.85;;;17.30;99.90;;;;;;4958340;28;20023;-70
2023/04/10 10:44:48;;;;;;;16.30;6.70;;;17.60;99.90;;;;;;4958732;28;20019;-69
2023/04/10 10:47:26;;;;;;;15.60;6.88;;;17.70;99.90;;;;;;4958700;28;20035;-70
2023/04/10 10:49:56;;;;;;;15.52;5.93;;;17.90;99.90;;;;;;4958521;28;20031;-69
2023/04/10 10:52:45;;;;;;;10.30;5.70;;;18.20;99.90;;;;;;4958654;29;20098;-69
2023/04/10 10:55:27;;;;;;;15.13;6.20;;;18.20;99.90;;;;;;4958613;29;20034;-70
2023/04/10 10:57:54;;;;;;;9.63;5.40;;;18.30;99.90;;;;;;4958325;28;20055;-70
2023/04/10 11:00:22;;;;;;;13.45;5.75;;;18.00;99.90;;;;;;4958680;29;20027;-70
2023/04/10 11:03:06;;;;;;;11.90;6.18;;;18.00;99.90;;;;;;4958276;28;20083;-69
2023/04/10 11:05:51;;;;;;;13.52;5.25;;;17.90;99.90;;;;;;4962220;29;20150;-69
2023/04/10 11:08:17;;;;;;;12.35;5.47;;;18.10;99.90;;;;;;4960889;28;20019;-70
2023/04/10 11:11:05;;;;;;;7.95;4.88;;;18.20;99.90;;;;;;4962152;28;20023;-70
2023/04/10 11:13:33;;;;;;;12.48;5.25;;;18.10;99.90;;;;;;4954829;29;20027;-69
2023/04/10 11:16:01;;;;;;;11.88;5.28;;;18.20;99.90;;;;;;4962092;29;20562;-70
2023/04/10 11:18:48;;;;;;;10.95;4.85;;;18.20;99.90;;;;;;4960768;29;20558;-70
2023/04/10 11:21:15;;;;;;;7.28;4.50;;;18.20;99.90;;;;;;4961583;28;20074;-70
2023/04/10 11:23:50;;;;;;;13.88;5.65;;;18.30;99.90;;;;;;4961455;28;20055;-70
2023/04/10 11:26:38;;;;;;;12.63;5.30;;;18.40;99.90;;;;;;4952534;28;20507;-70
2023/04/10 11:29:18;;;;;;;10.40;5.60;;;18.40;99.90;;;;;;4961812;28;20122;-70
2023/04/10 11:31:58;;;;;;;10.88;4.85;;;18.50;99.90;;;;;;4960637;29;20492;-70
2023/04/10 11:34:26;;;;;;;8.00;4.68;;;18.40;99.90;;;;;;4952650;28;20027;-70
2023/04/10 11:36:52;;;;;;;8.13;5.05;;;18.10;99.90;;;;;;4961681;28;20050;-70
2023/04/10 11:39:19;;;;;;;13.18;5.70;;;18.10;99.90;;;;;;4961799;28;20024;-69
2023/04/10 11:41:51;;;;;;;16.40;5.25;;;17.90;99.90;;;;;;4961441;28;20027;-70
2023/04/10 11:44:31;;;;;;;9.40;4.95;;;17.70;99.90;;;;;;4961544;28;20032;-69
2023/04/10 11:46:57;;;;;;;14.68;6.03;;;17.60;99.90;;;;;;4958915;28;20037;-70
2023/04/10 11:49:26;;;;;;;10.30;5.80;;;17.70;99.90;;;;;;4960054;28;20035;-70
2023/04/10 11:51:52;;;;;;;10.18;5.95;;;17.60;99.90;;;;;;4961661;29;20058;-69
2023/04/10 11:54:23;;;;;;;9.10;4.90;;;17.80;99.90;;;;;;4961252;28;20110;-69
2023/04/10 11:56:58;;;;;;;;;;;17.70;99.90;;;;;;4962131;29;20034;-70
2023/04/10 11:59:24;;;;;;;11.30;6.05;;;17.70;99.90;;;;;;4961274;29;20362;-70
2023/04/10 12:01:54;;;;;;;9.38;5.57;;;17.80;99.90;;;;;;4961487;28;20039;-70
2023/04/10 12:04:21;;;;;;;9.57;6.30;;;18.00;99.90;;;;;;4961287;28;20440;-70
2023/04/10 12:06:52;;;;;;;13.60;5.38;;;18.20;99.90;;;;;;4961245;28;20039;-70
2023/04/10 12:09:18;;;;;;;;;;;18.40;99.90;;;;;;4961258;28;20027;-70
2023/04/10 12:11:58;;;;;;;10.18;5.75;;;18.50;99.90;;;;;;4960033;28;19913;-70
2023/04/10 12:14:34;;;;;;;7.93;5.25;;;18.60;99.90;;;;;;4961131;28;20031;-70
2023/04/10 12:17:03;;;;;;;9.23;5.55;;;18.70;99.90;;;;;;4960164;28;20395;-70
2023/04/10 12:19:30;;;;;;;7.93;4.55;;;18.90;99.90;;;;;;4958941;28;20026;-70
2023/04/10 12:21:58;;;;;;;12.88;6.47;;;19.10;99.90;;;;;;4960961;29;20050;-70
2023/04/10 12:24:52;;;;;;;17.30;6.03;;;19.10;99.90;;;;;;4960759;28;20027;-70
2023/04/10 12:27:22;;;;;;;13.98;5.07;;;19.10;99.90;;;;;;4960772;28;20062;-70
2023/04/10 12:29:50;;;;;;;10.10;5.22;;;19.10;99.90;;;;;;4961050;28;20403;-70
2023/04/10 12:32:16;;;;;;;12.55;5.82;;;19.10;99.90;;;;;;4960931;28;20020;-71
2023/04/10 12:34:56;;;;;;;14.80;4.57;;;19.20;99.90;;;;;;4960964;28;20031;-71
2023/04/10 12:37:21;;;;;;;11.07;5.45;;;19.40;99.90;;;;;;4960499;28;20494;-70
2023/04/10 12:39:47;;;;;;;8.20;5.15;;;19.40;99.90;;;;;;4959626;29;20416;-70
2023/04/10 12:42:21;;;;;;;11.25;5.25;;;19.30;99.90;;;;;;4960766;29;20106;-70
2023/04/10 12:44:51;;;;;;;13.07;5.00;;;19.20;99.90;;;;;;4960705;28;20019;-70
2023/04/10 12:47:17;;;;;;;14.07;5.65;;;19.40;99.90;;;;;;4960719;28;20027;-70
2023/04/10 12:50:03;;;;;;;12.35;6.22;;;19.80;99.90;;;;;;4959223;28;20074;-70
2023/04/10 12:52:29;;;;;;;9.65;5.18;;;20.10;99.90;;;;;;4960680;28;20023;-70
2023/04/10 12:55:14;;;;;;;15.13;5.78;;;20.30;99.90;;;;;;4960432;28;20045;-70